Time;durP1;ratioP1;P1;durP2;ratioP2;P2;SDS_P1;SDS_P2;PMS_P1;PMS_P2;Temp;Humidity;BMP_temperature;BMP_pressure;BME280_temperature;BME280_humidity;BME280_pressure;Samples;Min_cycle;Max_cycle;Signal;HPM_P1;HPM_P2
2022/01/07 00:01:03;;;;;;;7.90;4.50;;;;;;;-4.64;80.27;100730.41;83872;1332;1003299;-70
2022/01/07 00:03:15;;;;;;;8.10;4.50;;;;;;;-4.67;80.31;100730.16;84572;1329;22587;-70
2022/01/07 00:05:25;;;;;;;12.70;4.90;;;;;;;-4.68;80.40;100733.20;84579;1330;22619;-74
2022/01/07 00:07:36;;;;;;;;;;;;;;;-4.67;80.51;100738.68;84582;1330;24249;-70
2022/01/07 00:09:48;;;;;;;7.80;4.50;;;;;;;-4.68;80.88;100741.89;84590;1334;22759;-71
2022/01/07 00:11:59;;;;;;;7.00;4.60;;;;;;;-4.62;80.89;100742.23;84540;1330;22606;-74
2022/01/07 00:14:11;;;;;;;11.80;5.00;;;;;;;-4.60;81.14;100742.96;84565;1332;22722;-74
2022/01/07 00:16:20;;;;;;;12.50;5.60;;;;;;;-4.59;81.15;100740.60;84551;1329;24142;-69
2022/01/07 00:18:29;;;;;;;9.10;5.00;;;;;;;-4.58;81.16;100740.98;84549;1331;22609;-69
2022/01/07 00:20:38;;;;;;;15.50;6.90;;;;;;;-4.56;81.32;100743.41;84592;1331;22603;-75
2022/01/07 00:22:50;;;;;;;13.40;6.30;;;;;;;-4.55;81.20;100749.89;84560;1330;22604;-75
2022/01/07 00:24:59;;;;;;;15.10;5.90;;;;;;;-4.56;81.26;100748.33;84555;1320;22628;-70
2022/01/07 00:27:11;;;;;;;13.70;6.80;;;;;;;-4.60;81.27;100746.71;84546;1331;22621;-70
2022/01/07 00:29:22;;;;;;;14.60;7.00;;;;;;;-4.62;81.33;100748.34;84553;1332;22924;-70
2022/01/07 00:31:31;;;;;;;14.30;6.20;;;;;;;-4.63;81.52;100756.64;83872;1332;1002755;-74
2022/01/07 00:33:40;;;;;;;12.20;5.80;;;;;;;-4.64;81.57;100758.48;84560;1330;22625;-75
2022/01/07 00:35:56;;;;;;;14.40;5.70;;;;;;;-4.63;81.61;100760.04;84599;1331;25275;-75
2022/01/07 00:38:08;;;;;;;13.30;6.10;;;;;;;-4.61;81.74;100765.91;83867;1332;1004332;-75
2022/01/07 00:40:22;;;;;;;13.20;6.10;;;;;;;-4.60;81.93;100767.46;84589;1332;23763;-71
2022/01/07 00:42:35;;;;;;;13.40;5.50;;;;;;;-4.59;82.03;100769.19;84568;1330;24154;-71
2022/01/07 00:44:45;;;;;;;11.00;6.50;;;;;;;-4.59;82.05;100769.68;84552;1332;25342;-71
2022/01/07 00:46:54;;;;;;;15.80;6.40;;;;;;;-4.62;81.87;100770.80;84545;1332;26511;-71
2022/01/07 00:49:06;;;;;;;12.60;6.80;;;;;;;-4.65;81.94;100774.81;84539;1332;22645;-71
2022/01/07 00:51:15;;;;;;;9.50;6.20;;;;;;;-4.69;82.11;100775.39;84548;1330;23906;-74
2022/01/07 00:53:25;;;;;;;14.40;6.10;;;;;;;-4.71;82.04;100776.48;83877;1332;1003090;-75
2022/01/07 00:55:36;;;;;;;15.40;6.30;;;;;;;-4.76;82.14;100775.84;83893;1330;1003930;-71
2022/01/07 00:57:48;;;;;;;10.00;5.50;;;;;;;-4.80;82.15;100774.02;84462;1331;22628;-71
2022/01/07 01:00:01;;;;;;;13.80;5.20;;;;;;;-4.82;82.08;100775.83;83758;1336;1015805;-74
2022/01/07 01:02:13;;;;;;;22.40;7.60;;;;;;;-4.84;82.35;100775.77;83765;1333;1003046;-76
2022/01/07 01:04:25;;;;;;;15.10;6.30;;;;;;;-4.81;82.56;100780.11;84467;1331;24356;-74
2022/01/07 01:06:41;;;;;;;13.10;5.70;;;;;;;-4.79;82.70;100783.58;84468;1333;22852;-75
2022/01/07 01:08:50;;;;;;;12.40;5.60;;;;;;;-4.78;82.67;100781.91;84468;1332;22599;-74
2022/01/07 01:10:58;;;;;;;10.80;5.20;;;;;;;-4.76;82.96;100784.85;83778;1332;1003394;-71
2022/01/07 01:13:07;;;;;;;13.10;6.20;;;;;;;-4.75;82.87;100778.59;84467;1332;22853;-70
2022/01/07 01:15:28;;;;;;;13.90;5.70;;;;;;;-4.75;83.05;100777.23;84518;1332;22866;-74
2022/01/07 01:17:45;;;;;;;15.00;5.90;;;;;;;-4.78;82.88;100779.70;83786;1335;1003183;-71
2022/01/07 01:19:54;;;;;;;13.90;5.40;;;;;;;-4.81;82.84;100777.05;84491;1332;22620;-71
2022/01/07 01:22:04;;;;;;;7.10;4.50;;;;;;;-4.84;82.88;100777.62;84462;1335;22650;-71
2022/01/07 01:24:16;;;;;;;11.10;4.60;;;;;;;-4.87;82.90;100775.00;84454;1332;23926;-71
2022/01/07 01:26:25;;;;;;;7.80;5.70;;;;;;;-4.90;82.97;100774.89;84482;1336;22615;-71
2022/01/07 01:28:34;;;;;;;10.50;5.30;;;;;;;-4.92;82.97;100767.87;84462;1332;22605;-71
2022/01/07 01:30:46;;;;;;;9.20;4.50;;;;;;;-4.91;83.13;100766.36;84491;1336;22884;-71
2022/01/07 01:32:55;;;;;;;13.70;5.50;;;;;;;-4.91;83.17;100765.52;84466;1332;22620;-71
2022/01/07 01:35:04;;;;;;;15.50;6.10;;;;;;;-4.89;83.38;100770.33;84462;1333;22609;-76
2022/01/07 01:37:13;;;;;;;14.80;5.90;;;;;;;-4.86;83.51;100768.39;84473;1333;24076;-74
2022/01/07 01:39:22;;;;;;;13.10;5.10;;;;;;;-4.87;83.56;100768.00;84464;1332;22622;-75
2022/01/07 01:41:31;;;;;;;12.60;5.30;;;;;;;-4.87;83.61;100766.64;84459;1333;22845;-71
2022/01/07 01:43:43;;;;;;;13.00;5.30;;;;;;;-4.88;83.61;100768.52;84493;1331;22913;-70
2022/01/07 01:45:52;;;;;;;16.20;7.00;;;;;;;-4.90;83.61;100771.34;84470;1331;22786;-75
2022/01/07 01:48:04;;;;;;;16.50;6.40;;;;;;;-4.90;83.58;100773.53;84463;1336;22638;-76
2022/01/07 01:50:14;;;;;;;11.50;4.60;;;;;;;-4.89;83.56;100779.85;84480;1333;24164;-74
2022/01/07 01:52:23;;;;;;;9.60;5.90;;;;;;;-4.90;83.55;100779.51;84484;1332;22779;-75
2022/01/07 01:54:38;;;;;;;15.90;5.70;;;;;;;-4.89;83.75;100780.54;84467;1330;22592;-75
2022/01/07 01:56:47;;;;;;;14.10;5.00;;;;;;;-4.87;83.76;100783.50;84527;1325;22881;-71
2022/01/07 01:58:59;;;;;;;11.60;5.50;;;;;;;-4.87;83.72;100784.00;84566;1331;22803;-71
2022/01/07 02:01:07;;;;;;;10.80;5.60;;;;;;;-4.88;83.88;100786.01;84552;1333;24329;-75
2022/01/07 02:03:19;;;;;;;8.80;4.70;;;;;;;-4.89;83.92;100789.38;84509;1332;24124;-74
2022/01/07 02:05:28;;;;;;;10.00;5.70;;;;;;;-4.90;83.92;100793.44;84543;1334;22852;-71
2022/01/07 02:07:41;;;;;;;14.50;5.70;;;;;;;-4.92;83.86;100792.19;84559;1331;24312;-71
2022/01/07 02:09:53;;;;;;;12.00;5.50;;;;;;;-4.96;83.96;100791.41;84546;1330;22613;-71
2022/01/07 02:12:06;;;;;;;11.40;5.20;;;;;;;-4.98;84.12;100793.54;84558;1332;22610;-71
2022/01/07 02:14:15;;;;;;;13.80;5.70;;;;;;;-4.99;84.02;100797.42;84565;1330;22593;-71
2022/01/07 02:16:28;;;;;;;12.00;4.90;;;;;;;-4.99;84.14;100803.21;84537;1333;22791;-71
2022/01/07 02:18:37;;;;;;;10.00;5.30;;;;;;;-4.96;84.10;100803.14;84560;1332;22633;-70
2022/01/07 02:20:49;;;;;;;12.90;5.40;;;;;;;-4.92;84.37;100801.39;84569;1333;22608;-70
2022/01/07 02:23:01;;;;;;;14.10;5.80;;;;;;;-4.88;84.33;100801.34;84562;1328;22644;-74
2022/01/07 02:25:11;;;;;;;10.90;5.40;;;;;;;-4.85;84.47;100803.80;84582;1331;22589;-70
2022/01/07 02:27:24;;;;;;;12.20;5.90;;;;;;;-4.84;84.34;100800.43;83849;1334;1003077;-70
2022/01/07 02:29:36;;;;;;;9.90;5.50;;;;;;;-4.83;84.40;100799.77;84542;1331;25392;-74
2022/01/07 02:31:48;;;;;;;17.00;6.40;;;;;;;-4.84;84.43;100801.27;84589;1331;22915;-75
2022/01/07 02:33:57;;;;;;;13.60;5.70;;;;;;;-4.84;84.43;100802.48;84465;1332;23102;-74
2022/01/07 02:36:12;;;;;;;14.10;6.10;;;;;;;-4.84;84.38;100806.56;84553;1330;25660;-74
2022/01/07 02:38:24;;;;;;;11.70;5.30;;;;;;;-4.84;84.21;100813.02;83814;1332;1003235;-74
2022/01/07 02:40:34;;;;;;;11.40;4.80;;;;;;;-4.83;84.37;100810.14;84569;1333;23971;-71
2022/01/07 02:42:43;;;;;;;10.10;5.10;;;;;;;-4.81;84.28;100814.48;84565;1331;25341;-72
2022/01/07 02:44:52;;;;;;;14.30;6.40;;;;;;;-4.81;84.49;100814.84;84550;1328;23914;-74
2022/01/07 02:47:03;;;;;;;13.00;5.70;;;;;;;-4.80;84.54;100818.94;84568;1331;22602;-75
2022/01/07 02:49:16;;;;;;;12.10;5.80;;;;;;;-4.81;84.48;100816.36;84565;1331;22728;-75
2022/01/07 02:51:28;;;;;;;16.90;8.00;;;;;;;-4.83;84.39;100814.09;84544;1332;24775;-75
2022/01/07 02:53:40;;;;;;;12.80;6.80;;;;;;;-4.84;84.36;100814.55;84562;1334;23911;-75
2022/01/07 02:55:50;;;;;;;14.90;6.80;;;;;;;-4.87;84.33;100812.93;84549;1335;22608;-70
2022/01/07 02:58:02;;;;;;;11.80;7.00;;;;;;;-4.89;84.36;100814.57;84564;1332;23947;-70
2022/01/07 03:00:16;;;;;;;16.20;6.20;;;;;;;-4.89;84.36;100821.88;84565;1331;22630;-74
2022/01/07 03:02:25;;;;;;;13.40;6.60;;;;;;;-4.89;84.37;100825.80;84588;1332;24247;-75
2022/01/07 03:04:40;;;;;;;16.20;6.00;;;;;;;-4.88;84.38;100828.23;84552;1329;25438;-73
2022/01/07 03:06:50;;;;;;;11.30;5.80;;;;;;;-4.86;84.38;100827.44;84542;1332;22602;-75
2022/01/07 03:09:01;;;;;;;10.10;5.30;;;;;;;-4.84;84.55;100833.95;84575;1332;22828;-75
2022/01/07 03:11:13;;;;;;;12.40;6.20;;;;;;;-4.82;84.55;100829.61;84606;1328;25587;-76
2022/01/07 03:13:22;;;;;;;12.40;5.80;;;;;;;-4.83;84.39;100827.02;83861;1332;1002973;-74
2022/01/07 03:15:37;;;;;;;14.20;5.40;;;;;;;-4.85;84.45;100828.65;84563;1334;23993;-71
2022/01/07 03:17:46;;;;;;;11.20;4.90;;;;;;;-4.88;84.32;100829.90;84561;1331;22612;-70
2022/01/07 03:19:55;;;;;;;14.70;5.10;;;;;;;-4.93;84.29;100829.59;84577;1330;22836;-74
2022/01/07 03:22:07;;;;;;;13.00;6.20;;;;;;;-4.99;84.40;100829.09;84559;1331;22865;-74
2022/01/07 03:24:16;;;;;;;8.30;5.50;;;;;;;-5.02;84.23;100831.34;84567;1330;24400;-74
2022/01/07 03:26:25;;;;;;;13.10;5.40;;;;;;;-5.05;84.31;100832.79;84561;1331;22625;-74
2022/01/07 03:28:38;;;;;;;6.80;4.60;;;;;;;-5.05;84.26;100830.39;84559;1333;22613;-74
2022/01/07 03:30:48;;;;;;;12.10;5.80;;;;;;;-5.04;84.30;100832.81;84601;1333;22647;-71
2022/01/07 03:32:59;;;;;;;13.20;4.50;;;;;;;-5.04;84.33;100831.97;84555;1331;22600;-71
2022/01/07 03:35:11;;;;;;;13.00;5.70;;;;;;;-5.06;84.32;100835.66;84484;1333;22596;-71
2022/01/07 03:37:23;;;;;;;12.70;4.70;;;;;;;-5.06;84.32;100834.95;84533;1335;22633;-71
2022/01/07 03:39:41;;;;;;;13.10;5.30;;;;;;;-5.07;84.51;100837.83;84543;1327;22779;-71
2022/01/07 03:41:53;;;;;;;11.00;4.50;;;;;;;-5.09;84.56;100837.74;84563;1333;22615;-75
2022/01/07 03:44:05;;;;;;;13.00;6.40;;;;;;;-5.11;84.62;100841.08;84580;1331;22839;-74
2022/01/07 03:46:14;;;;;;;11.20;6.10;;;;;;;-5.16;84.40;100839.23;84560;1335;22779;-70
2022/01/07 03:48:23;;;;;;;10.50;5.20;;;;;;;-5.22;84.39;100840.73;84542;1334;22610;-71
2022/01/07 03:50:32;;;;;;;8.50;4.60;;;;;;;-5.24;84.57;100842.70;84575;1328;22908;-71
2022/01/07 03:52:41;;;;;;;10.50;4.80;;;;;;;-5.23;84.51;100845.95;84519;1332;25440;-71
2022/01/07 03:54:50;;;;;;;13.60;5.00;;;;;;;-5.22;84.61;100844.67;84557;1330;22924;-71
2022/01/07 03:57:02;;;;;;;12.20;6.30;;;;;;;-5.20;84.67;100841.51;84557;1330;24248;-71
2022/01/07 03:59:14;;;;;;;14.90;5.30;;;;;;;-5.17;84.75;100843.09;84568;1333;22744;-70
2022/01/07 04:01:23;;;;;;;11.70;5.90;;;;;;;-5.15;84.75;100838.91;84581;1334;22628;-74
2022/01/07 04:03:32;;;;;;;10.50;5.60;;;;;;;-5.17;84.57;100837.83;84576;1314;22585;-74
2022/01/07 04:05:41;;;;;;;11.40;5.50;;;;;;;-5.19;84.60;100838.96;83861;1335;1003819;-70
2022/01/07 04:07:53;;;;;;;11.60;5.80;;;;;;;-5.20;84.48;100840.80;84568;1335;22599;-70
2022/01/07 04:10:05;;;;;;;12.90;6.00;;;;;;;-5.22;84.52;100842.79;84592;1334;24296;-74
2022/01/07 04:12:17;;;;;;;11.20;5.50;;;;;;;-5.25;84.49;100843.69;84578;1334;24286;-74
2022/01/07 04:14:30;;;;;;;11.60;6.30;;;;;;;-5.28;84.43;100846.98;84567;1331;22616;-73
2022/01/07 04:16:42;;;;;;;8.10;5.20;;;;;;;-5.29;84.57;100846.79;84574;1335;26050;-74
2022/01/07 04:18:51;;;;;;;10.50;5.20;;;;;;;-5.28;84.66;100849.88;84557;1331;24376;-74
2022/01/07 04:21:04;;;;;;;10.80;5.30;;;;;;;-5.29;84.64;100848.84;84546;1334;23901;-70
2022/01/07 04:23:14;;;;;;;11.80;5.90;;;;;;;-5.27;84.75;100839.23;84549;1331;23988;-70
2022/01/07 04:25:26;;;;;;;10.40;5.50;;;;;;;-5.24;84.83;100842.36;84585;1331;22639;-75
2022/01/07 04:27:36;;;;;;;12.60;6.90;;;;;;;-5.23;84.66;100839.86;84526;1335;25446;-73
2022/01/07 04:29:47;;;;;;;;;;;;;;;-5.24;84.63;100833.86;84586;1327;22591;-74
2022/01/07 04:31:59;;;;;;;14.50;5.50;;;;;;;-5.28;84.62;100833.05;84577;1335;25272;-73
2022/01/07 04:34:08;;;;;;;12.80;6.40;;;;;;;-5.31;84.64;100828.89;83861;1334;1002551;-74
2022/01/07 04:36:20;;;;;;;13.10;5.90;;;;;;;-5.34;84.63;100823.84;84566;1331;22600;-69
2022/01/07 04:38:32;;;;;;;12.90;5.70;;;;;;;-5.39;84.54;100826.56;83861;1334;1003832;-70
2022/01/07 04:40:41;;;;;;;12.80;7.90;;;;;;;-5.43;84.63;100828.98;84581;1331;22559;-69
2022/01/07 04:42:53;;;;;;;11.60;5.90;;;;;;;-5.44;84.53;100830.47;84560;1335;24001;-69
2022/01/07 04:45:06;;;;;;;10.40;5.60;;;;;;;-5.45;84.70;100830.11;84583;1334;24245;-70
2022/01/07 04:47:20;;;;;;;14.60;6.10;;;;;;;-5.46;84.61;100826.34;84568;1334;22616;-69
2022/01/07 04:49:32;;;;;;;12.30;5.80;;;;;;;-5.44;84.76;100823.84;84567;1334;24004;-70
2022/01/07 04:51:44;;;;;;;13.10;5.80;;;;;;;-5.43;84.84;100820.12;82396;1335;3072766;-74
2022/01/07 04:53:56;;;;;;;13.70;6.80;;;;;;;-5.40;84.89;100817.00;84549;1334;25314;-74
2022/01/07 04:56:08;;;;;;;14.70;6.40;;;;;;;-5.40;84.87;100812.58;84518;1333;22716;-70
2022/01/07 04:58:17;;;;;;;10.20;6.20;;;;;;;-5.42;84.85;100815.41;83832;1328;1015563;-70
2022/01/07 05:00:26;;;;;;;14.10;6.40;;;;;;;-5.43;84.96;100811.80;84567;1334;25292;-70
2022/01/07 05:02:38;;;;;;;18.30;7.00;;;;;;;-5.47;84.95;100813.73;84576;1334;22593;-69
2022/01/07 05:04:50;;;;;;;13.90;7.70;;;;;;;-5.49;84.77;100816.52;84578;1334;22851;-70
2022/01/07 05:07:00;;;;;;;17.90;7.60;;;;;;;-5.51;84.70;100816.14;84568;1331;22591;-70
2022/01/07 05:09:09;;;;;;;11.60;6.50;;;;;;;-5.53;84.82;100818.96;84572;1335;22588;-70
2022/01/07 05:11:19;;;;;;;17.70;7.90;;;;;;;-5.54;84.73;100819.60;84533;1334;22706;-70
2022/01/07 05:13:27;;;;;;;;;;;;;;;-5.55;84.80;100821.27;84587;1326;22765;-70
2022/01/07 05:15:36;;;;;;;10.60;5.90;;;;;;;-5.54;85.03;100817.05;84561;1334;22590;-70
2022/01/07 05:17:45;;;;;;;14.00;6.60;;;;;;;-5.53;84.98;100819.80;84549;1330;22577;-70
2022/01/07 05:19:54;;;;;;;15.30;6.30;;;;;;;-5.52;84.93;100820.69;84602;1334;22771;-70
2022/01/07 05:22:03;;;;;;;14.30;7.50;;;;;;;-5.54;84.91;100816.36;84574;1331;24993;-70
2022/01/07 05:24:12;;;;;;;13.60;6.60;;;;;;;-5.58;84.82;100807.73;84554;1333;22611;-70
2022/01/07 05:26:21;;;;;;;13.00;6.10;;;;;;;-5.61;84.94;100804.05;83860;1335;1003147;-69
2022/01/07 05:28:33;;;;;;;13.00;6.80;;;;;;;-5.65;84.76;100806.97;84572;1330;22967;-70
2022/01/07 05:30:45;;;;;;;12.90;6.80;;;;;;;-5.71;84.91;100803.88;84581;1332;22600;-74
2022/01/07 05:32:59;;;;;;;15.00;7.50;;;;;;;-5.75;84.81;100805.95;84574;1333;22691;-75
2022/01/07 05:35:11;;;;;;;13.40;6.80;;;;;;;-5.77;84.78;100804.68;84569;1326;22604;-73
2022/01/07 05:37:21;;;;;;;9.30;5.70;;;;;;;-5.77;84.77;100801.30;84562;1331;22664;-74
2022/01/07 05:39:30;;;;;;;15.40;7.20;;;;;;;-5.78;84.77;100800.23;84562;1331;25468;-73
2022/01/07 05:41:39;;;;;;;13.30;6.60;;;;;;;-5.78;85.06;100803.29;83861;1333;1003242;-74
2022/01/07 05:43:52;;;;;;;10.90;5.50;;;;;;;-5.75;85.03;100806.65;84549;1330;22614;-73
2022/01/07 05:46:04;;;;;;;19.30;6.50;;;;;;;-5.73;85.07;100805.34;84577;1331;24406;-74
2022/01/07 05:48:13;;;;;;;15.70;8.00;;;;;;;-5.72;84.99;100804.54;83863;1330;1003708;-73
2022/01/07 05:50:26;;;;;;;13.20;6.50;;;;;;;-5.72;85.00;100807.44;84583;1334;22866;-74
2022/01/07 05:52:38;;;;;;;19.40;6.80;;;;;;;-5.72;84.83;100804.52;84577;1335;22664;-73
2022/01/07 05:54:48;;;;;;;15.00;6.70;;;;;;;-5.72;84.90;100810.65;84453;1336;22630;-71
2022/01/07 05:56:57;;;;;;;14.30;6.30;;;;;;;-5.73;84.94;100812.48;83859;1334;1003803;-73
2022/01/07 05:59:06;;;;;;;14.80;7.20;;;;;;;-5.75;84.89;100816.34;84574;1331;24299;-73
2022/01/07 06:01:18;;;;;;;17.50;8.00;;;;;;;-5.75;84.83;100815.33;83841;1335;1003207;-70
2022/01/07 06:03:31;;;;;;;17.50;8.40;;;;;;;-5.73;84.74;100815.02;84547;1334;22602;-71
2022/01/07 06:05:42;;;;;;;15.00;6.70;;;;;;;-5.68;84.82;100815.02;84564;1331;24298;-72
2022/01/07 06:07:52;;;;;;;13.90;6.70;;;;;;;-5.63;84.94;100819.77;84554;1331;24094;-71
2022/01/07 06:10:01;;;;;;;13.90;6.00;;;;;;;-5.57;84.98;100816.23;84569;1331;24119;-72
2022/01/07 06:12:15;;;;;;;12.50;5.60;;;;;;;-5.53;84.87;100820.29;83836;1327;1003235;-74
2022/01/07 06:14:24;;;;;;;19.10;8.30;;;;;;;-5.51;84.69;100823.25;84575;1328;22797;-74
2022/01/07 06:16:37;;;;;;;16.10;6.50;;;;;;;-5.51;84.88;100824.65;84553;1333;22778;-71
2022/01/07 06:18:53;;;;;;;16.20;7.30;;;;;;;-5.50;84.74;100826.54;84559;1335;24238;-71
2022/01/07 06:21:02;;;;;;;14.20;7.30;;;;;;;-5.50;84.68;100822.27;84561;1335;22617;-74
2022/01/07 06:23:11;;;;;;;10.30;5.30;;;;;;;-5.53;84.54;100825.06;84576;1330;22597;-74
2022/01/07 06:25:24;;;;;;;19.00;7.80;;;;;;;-5.56;84.48;100824.82;84553;1327;22703;-74
2022/01/07 06:27:32;;;;;;;17.90;8.80;;;;;;;-5.57;84.40;100823.71;84572;1334;22703;-74
2022/01/07 06:29:41;;;;;;;17.60;7.10;;;;;;;-5.58;84.42;100827.25;84588;1334;22603;-71
2022/01/07 06:31:51;;;;;;;14.80;6.70;;;;;;;-5.58;84.38;100827.44;84576;1328;22581;-70
2022/01/07 06:33:59;;;;;;;15.70;7.70;;;;;;;-5.57;84.47;100819.47;84534;1334;22613;-70
2022/01/07 06:36:09;;;;;;;16.90;7.30;;;;;;;-5.54;84.48;100819.91;84496;1334;23769;-70
2022/01/07 06:38:17;;;;;;;17.30;7.60;;;;;;;-5.53;84.49;100823.69;84563;1331;22814;-70
2022/01/07 06:40:27;;;;;;;16.40;7.90;;;;;;;-5.52;84.61;100819.33;84582;1330;25272;-70
2022/01/07 06:42:39;;;;;;;19.10;8.20;;;;;;;-5.50;84.48;100822.11;83853;1329;1003274;-70
2022/01/07 06:44:50;;;;;;;17.70;8.00;;;;;;;-5.49;84.47;100820.60;84581;1334;22668;-75
2022/01/07 06:47:03;;;;;;;12.20;7.80;;;;;;;-5.49;84.53;100819.76;84581;1334;24296;-74
2022/01/07 06:49:15;;;;;;;17.80;8.20;;;;;;;-5.49;84.50;100822.16;84577;1335;24100;-74
2022/01/07 06:51:27;;;;;;;14.20;7.90;;;;;;;-5.47;84.50;100823.56;84536;1333;22735;-74
2022/01/07 06:53:35;;;;;;;15.10;7.20;;;;;;;-5.43;84.82;100824.71;84582;1334;25287;-74
2022/01/07 06:55:47;;;;;;;12.90;7.40;;;;;;;-5.35;84.85;100822.94;84581;1331;25450;-70
2022/01/07 06:57:57;;;;;;;17.50;7.50;;;;;;;-5.25;84.89;100817.16;84512;1333;22695;-71
2022/01/07 07:00:16;;;;;;;14.30;7.40;;;;;;;-5.14;84.89;100818.38;84579;1330;24351;-71
2022/01/07 07:02:31;;;;;;;15.20;6.50;;;;;;;-5.04;84.87;100819.36;84559;1325;22623;-70
2022/01/07 07:04:46;;;;;;;18.90;6.90;;;;;;;-4.99;84.75;100821.58;84585;1332;24129;-73
2022/01/07 07:06:59;;;;;;;15.70;6.50;;;;;;;-4.94;84.78;100824.30;84541;1330;23953;-72
2022/01/07 07:09:12;;;;;;;20.80;7.20;;;;;;;-4.91;84.54;100827.61;84440;1332;22718;-71
2022/01/07 07:11:24;;;;;;;14.70;6.70;;;;;;;-4.92;84.42;100830.50;84552;1330;22613;-70
2022/01/07 07:13:33;;;;;;;15.80;7.10;;;;;;;-4.91;84.47;100832.38;84568;1333;23913;-71
2022/01/07 07:15:46;;;;;;;14.10;6.10;;;;;;;-4.92;84.29;100834.39;84571;1334;22594;-70
2022/01/07 07:17:55;;;;;;;14.90;6.60;;;;;;;-4.92;84.42;100834.73;84553;1330;22615;-70
2022/01/07 07:20:05;;;;;;;15.00;5.90;;;;;;;-4.91;84.32;100834.59;84555;1332;22926;-70
2022/01/07 07:22:13;;;;;;;;;;;;;;;-4.88;84.41;100833.98;84586;1331;22574;-70
2022/01/07 07:24:22;;;;;;;16.30;6.90;;;;;;;-4.82;84.45;100839.15;84567;1333;26362;-74
2022/01/07 07:26:34;;;;;;;14.60;6.70;;;;;;;-4.67;84.76;100835.52;84525;1335;22623;-74
2022/01/07 07:28:43;;;;;;;11.50;6.30;;;;;;;-4.50;84.89;100835.00;84562;1330;24194;-75
2022/01/07 07:30:59;;;;;;;21.00;7.50;;;;;;;-4.33;84.86;100836.71;84564;1331;22580;-70
2022/01/07 07:33:30;;;;;;;11.40;6.10;;;;;;;-4.16;84.99;100835.84;84551;1333;24149;-70
2022/01/07 07:38:17;;;;;;;14.40;7.60;;;;;;;-3.91;84.60;100832.98;84233;1337;22847;-70
2022/01/07 07:40:30;;;;;;;14.30;7.60;;;;;;;-3.81;84.62;100834.27;84229;1334;23585;-70
2022/01/07 07:42:41;;;;;;;17.40;7.80;;;;;;;-3.69;84.47;100829.52;84261;1336;22952;-71
2022/01/07 07:44:56;;;;;;;18.90;7.10;;;;;;;-3.55;84.42;100829.86;84282;1337;24010;-74
2022/01/07 07:47:06;;;;;;;13.90;7.10;;;;;;;-3.43;84.42;100826.95;84262;1337;22707;-74
2022/01/07 07:49:15;;;;;;;;;;;;;;;-3.36;84.18;100827.29;84377;1331;25416;-76
2022/01/07 07:51:24;;;;;;;14.80;6.70;;;;;;;-3.29;84.19;100823.88;84606;1333;22698;-70
2022/01/07 07:53:33;;;;;;;12.60;6.80;;;;;;;-3.20;83.98;100822.41;84583;1335;23435;-70
2022/01/07 07:55:44;;;;;;;16.90;6.20;;;;;;;-3.13;83.71;100819.86;84585;1330;25530;-70
2022/01/07 07:57:58;;;;;;;14.20;7.30;;;;;;;-3.05;83.58;100818.02;84564;1327;22612;-70
2022/01/07 08:00:15;;;;;;;17.10;6.80;;;;;;;-2.96;83.60;100813.29;84560;1333;22590;-70
2022/01/07 08:02:30;;;;;;;17.00;7.00;;;;;;;-2.90;83.15;100814.63;84543;1332;25440;-70
2022/01/07 08:04:43;;;;;;;13.40;7.90;;;;;;;-2.88;82.82;100810.89;84575;1334;22827;-73
2022/01/07 08:06:53;;;;;;;14.80;7.10;;;;;;;-2.85;82.90;100813.20;84569;1332;22769;-74
2022/01/07 08:09:05;;;;;;;14.40;8.90;;;;;;;-2.85;82.86;100816.27;84573;1332;25310;-74
2022/01/07 08:11:18;;;;;;;15.90;7.00;;;;;;;-2.85;82.85;100820.20;84577;1332;22578;-70
2022/01/07 08:16:04;;;;;;;15.40;6.90;;;;;;;-2.81;82.73;100819.40;84564;1333;23979;-70
2022/01/07 08:18:20;;;;;;;15.00;7.50;;;;;;;-2.79;82.74;100817.77;84551;1332;22828;-72
2022/01/07 08:20:29;;;;;;;18.00;6.50;;;;;;;-2.71;82.92;100815.73;84578;1332;22621;-75
2022/01/07 08:22:39;;;;;;;14.30;7.20;;;;;;;-2.53;83.10;100818.69;84570;1326;22712;-74
2022/01/07 08:24:54;;;;;;;14.20;7.40;;;;;;;-2.36;83.27;100819.59;84482;1334;22638;-73
2022/01/07 08:27:04;;;;;;;15.10;7.30;;;;;;;-2.20;83.08;100819.76;84575;1332;25473;-70
2022/01/07 08:29:15;;;;;;;12.30;7.00;;;;;;;-2.08;82.51;100816.74;84566;1332;22646;-69
2022/01/07 08:36:21;;;;;;;22.00;8.90;;;;;;;-1.81;82.26;100827.20;84467;1331;25382;-74
2022/01/07 08:38:33;;;;;;;14.80;7.30;;;;;;;-1.72;82.00;100822.76;84556;1332;22597;-73
2022/01/07 08:40:43;;;;;;;16.80;7.50;;;;;;;-1.65;82.04;100819.48;84584;1333;24151;-71
2022/01/07 08:42:53;;;;;;;17.30;8.20;;;;;;;-1.58;81.65;100822.34;84546;1333;24276;-71
2022/01/07 08:45:07;;;;;;;15.80;8.60;;;;;;;-1.50;81.54;100819.92;84557;1331;23907;-74
2022/01/07 08:47:18;;;;;;;15.40;7.10;;;;;;;-1.34;81.24;100821.40;84585;1332;23269;-74
2022/01/07 08:49:33;;;;;;;22.20;8.50;;;;;;;-1.19;80.96;100817.38;84530;1331;22596;-75
2022/01/07 08:51:45;;;;;;;12.70;7.90;;;;;;;-1.06;80.90;100819.83;84574;1327;24340;-70
2022/01/07 08:53:57;;;;;;;17.00;7.70;;;;;;;-0.96;80.25;100824.09;84557;1331;22603;-73
2022/01/07 08:56:06;;;;;;;18.50;8.00;;;;;;;-0.90;80.17;100826.23;84582;1331;24151;-74
2022/01/07 08:58:18;;;;;;;21.70;9.20;;;;;;;-0.84;79.79;100832.17;84549;1333;22620;-73
2022/01/07 09:00:41;;;;;;;17.70;7.90;;;;;;;-0.79;79.72;100829.84;84586;1334;23187;-69
2022/01/07 09:02:53;;;;;;;17.80;9.10;;;;;;;-0.73;79.67;100830.11;84556;1332;22699;-70
2022/01/07 09:05:15;;;;;;;18.40;8.50;;;;;;;-0.67;79.75;100832.77;84526;1327;23051;-75
2022/01/07 09:07:24;;;;;;;21.10;9.10;;;;;;;-0.61;79.45;100834.91;84476;1332;25275;-76
2022/01/07 09:09:36;;;;;;;16.30;7.90;;;;;;;-0.56;78.89;100837.73;84518;1334;22640;-74
2022/01/07 09:11:45;;;;;;;21.50;8.50;;;;;;;-0.55;78.88;100842.88;83878;1330;1003153;-74
2022/01/07 09:13:58;;;;;;;17.70;8.10;;;;;;;-0.57;79.05;100838.40;84549;1332;22647;-74
2022/01/07 09:16:08;;;;;;;16.30;8.50;;;;;;;-0.59;78.46;100836.48;84549;1328;23897;-73
2022/01/07 09:18:18;;;;;;;16.90;8.60;;;;;;;-0.65;78.16;100833.15;84520;1331;22831;-73
2022/01/07 09:20:27;;;;;;;15.10;8.50;;;;;;;-0.73;78.27;100833.02;84564;1331;24248;-70
2022/01/07 09:22:36;;;;;;;21.70;9.60;;;;;;;-0.79;77.88;100828.14;84531;1328;23797;-69
2022/01/07 09:24:48;;;;;;;22.80;8.60;;;;;;;-0.80;77.52;100827.08;84551;1331;23931;-70
2022/01/07 09:26:57;;;;;;;18.50;9.10;;;;;;;-0.76;77.64;100819.44;84562;1331;22630;-74
2022/01/07 09:29:06;;;;;;;16.40;8.60;;;;;;;-0.66;77.77;100813.44;84543;1332;22642;-74
2022/01/07 09:31:15;;;;;;;14.50;7.90;;;;;;;-0.55;77.79;100816.66;84542;1332;22812;-74
2022/01/07 09:33:24;;;;;;;19.60;8.00;;;;;;;-0.36;77.19;100818.82;84558;1329;22596;-74
2022/01/07 09:35:36;;;;;;;14.60;7.70;;;;;;;-0.14;77.44;100821.84;84572;1331;25460;-70
2022/01/07 09:37:51;;;;;;;20.60;9.20;;;;;;;0.02;77.05;100817.08;84549;1327;22727;-70
2022/01/07 09:40:03;;;;;;;15.00;8.30;;;;;;;0.17;76.66;100812.80;84578;1332;22617;-70
2022/01/07 09:42:16;;;;;;;17.60;8.10;;;;;;;0.23;75.80;100807.71;84442;1333;22624;-70
2022/01/07 09:44:25;;;;;;;15.30;8.70;;;;;;;0.31;75.94;100805.23;84542;1331;22627;-70
2022/01/07 09:46:34;;;;;;;16.60;8.30;;;;;;;0.38;75.73;100807.52;84556;1331;24277;-69
2022/01/07 09:48:47;;;;;;;14.40;8.30;;;;;;;0.44;75.08;100799.02;84540;1330;22615;-70
2022/01/07 09:50:56;;;;;;;15.30;8.90;;;;;;;0.49;74.83;100800.95;84537;1330;22665;-70
2022/01/07 09:53:14;;;;;;;18.10;9.60;;;;;;;0.54;74.25;100798.92;84545;1328;22725;-70
2022/01/07 09:55:26;;;;;;;15.60;8.40;;;;;;;0.73;74.79;100802.21;84583;1328;22598;-70
2022/01/07 09:57:38;;;;;;;18.60;8.50;;;;;;;0.87;74.63;100803.19;84537;1333;24050;-71
2022/01/07 09:59:54;;;;;;;15.50;8.50;;;;;;;0.95;73.39;100804.11;84556;1334;24274;-73
2022/01/07 10:02:08;;;;;;;20.60;8.80;;;;;;;1.11;73.64;100802.86;84566;1330;22737;-74
2022/01/07 10:04:33;;;;;;;19.40;9.00;;;;;;;1.28;72.82;100794.89;84536;1331;22773;-73
2022/01/07 10:06:42;;;;;;;19.70;9.40;;;;;;;1.54;73.33;100786.80;84573;1332;24079;-74
2022/01/07 10:09:11;;;;;;;13.70;7.90;;;;;;;1.99;73.43;100781.16;84548;1331;22602;-74
2022/01/07 10:11:24;;;;;;;23.30;9.50;;;;;;;2.28;71.89;100781.59;84578;1330;22615;-74
2022/01/07 10:13:36;;;;;;;18.30;8.30;;;;;;;2.45;71.34;100778.88;84525;1331;23825;-73